Palmer, IL

12:12 AM CST on December 29, 2014 (GMT -0600)
Litchfield | Change Station
CLOSE
Current Station
Airport
Location: Litchfield,
Elevation: 689 ft
Nearby Weather Stations

Elev 689 ft 39.16 °N, 89.67 °W | Updated 17 minutes ago

Clear
Clear
24 °F
Feels Like 24 °F
N
0
Wind Variable Wind from North

Today
High -- | Low -- °F
--% Chance of Precip.
Yesterday
High -- | Low -- °F
Precip. -- in
7:17 AM 4:42 PM
First Quarter, 55% visible
Pressure 30.23 in
Visibility 7.0 miles
Clouds Clear
Dew Point 22 °F
Humidity 93%
Rainfall 0.00 in
Snow Depth Not available.
UV 0 out of 12
Pollen .10 out of 12
Air Quality Not available.
Flu Activity Not available.
METAR K3LF 290555Z AUTO 00000KT 7SM CLR M04/M05 A3023 RMK AO2 T10451055 11021 21046 400001046

More Conditions Fewer Conditions

Pressure 30.23 in
Visibility 7.0 miles
Clouds Clear
Dew Point 22 °F
Humidity 93%
Rainfall 0.00 in
Snow Depth Not available.
UV 0 out of 12
Pollen .10 out of 12
Air Quality Not available.
Flu Activity Not available.
METAR K3LF 290555Z AUTO 00000KT 7SM CLR M04/M05 A3023 RMK AO2 T10451055 11021 21046 400001046

More Conditions Fewer Conditions

10-Day Weather Forecast

Almanac

Astronomy

Dec. 29, 2014 Rise Set
Actual Time
Civil Twilight
Nautical Twilight
Astronomical Twilight
Moon
Length of Visible Light
Length of Day
Tomorrow will be .
, % of the Moon is Illuminated

Today's Extremes

State Highs State Lows

Community

WunderPhotos

Upload Photos

1,781,544 photos uploaded!

WunderBlogs® & News

Nearby

Air Quality

  Air Quality AQ Index Pollutant
Not available.

Snow Depth

Station Depth Elevation

Earthquake Activity

City Distance Mag. Time & Date
Minimum magnitude displayed is 2.5.

Coastal Water Temperatures

Place Temperature

Nearby Weather Stations